createdAt,value
2023-05-10T00:00:35.798Z,5.85
2023-05-10T00:03:15.003Z,9.65
2023-05-10T00:05:45.211Z,7.85
2023-05-10T00:08:17.874Z,9.70
2023-05-10T00:10:48.139Z,16.52
2023-05-10T00:13:18.338Z,10.63
2023-05-10T00:15:48.742Z,9.85
2023-05-10T00:18:19.013Z,8.80
2023-05-10T00:20:49.972Z,11.63
2023-05-10T00:23:22.718Z,13.05
2023-05-10T00:25:52.834Z,9.52
2023-05-10T00:28:25.625Z,13.15
2023-05-10T00:30:58.497Z,7.57
2023-05-10T00:33:29.439Z,12.47
2023-05-10T00:35:59.574Z,12.77
2023-05-10T00:38:32.373Z,18.00
2023-05-10T00:41:02.546Z,20.83
2023-05-10T00:43:35.645Z,27.67
2023-05-10T00:46:08.023Z,36.85
2023-05-10T00:48:39.052Z,47.38
2023-05-10T00:51:09.698Z,86.60
2023-05-10T00:53:45.050Z,76.40
2023-05-10T00:56:15.643Z,119.88
2023-05-10T00:58:46.117Z,114.35
2023-05-10T01:01:17.443Z,99.05
2023-05-10T01:03:49.355Z,114.53
2023-05-10T01:06:19.579Z,110.20
2023-05-10T01:08:52.330Z,93.00
2023-05-10T01:11:24.832Z,85.15
2023-05-10T01:14:00.319Z,56.35
2023-05-10T01:16:33.551Z,57.33
2023-05-10T01:19:03.864Z,57.60
2023-05-10T01:21:42.245Z,71.55
2023-05-10T01:24:50.771Z,56.33
2023-05-10T01:27:58.132Z,29.73
2023-05-10T01:31:08.480Z,23.38
2023-05-10T01:33:47.094Z,14.43
2023-05-10T01:36:28.852Z,17.65
2023-05-10T01:39:06.511Z,10.02
2023-05-10T01:41:45.441Z,11.70
2023-05-10T01:44:22.430Z,13.48
2023-05-10T01:46:57.526Z,8.98
2023-05-10T01:49:34.915Z,8.80
2023-05-10T01:52:12.602Z,12.25
2023-05-10T01:54:47.100Z,9.85
2023-05-10T01:57:19.827Z,9.07
2023-05-10T01:59:53.570Z,11.38
2023-05-10T02:02:26.314Z,10.57
2023-05-10T02:05:01.126Z,8.45
2023-05-10T02:07:32.601Z,15.48
2023-05-10T02:10:03.233Z,15.98
2023-05-10T02:12:35.655Z,13.15
2023-05-10T02:15:10.772Z,12.82
2023-05-10T02:17:42.823Z,10.50
2023-05-10T02:20:17.038Z,10.45
2023-05-10T02:22:50.955Z,14.50
2023-05-10T02:27:52.751Z,13.30
2023-05-10T02:30:23.680Z,11.07
2023-05-10T02:32:54.792Z,14.60
2023-05-10T02:35:29.597Z,11.50
2023-05-10T02:38:02.699Z,13.02
2023-05-10T02:40:34.312Z,10.55
2023-05-10T02:43:06.660Z,15.30
2023-05-10T02:45:40.213Z,10.70
2023-05-10T02:48:10.910Z,10.75
2023-05-10T02:50:49.814Z,16.40
2023-05-10T02:53:25.037Z,9.80
2023-05-10T02:55:58.199Z,13.05
2023-05-10T02:58:28.474Z,10.73
2023-05-10T03:00:59.716Z,11.43
2023-05-10T03:03:30.047Z,15.10
2023-05-10T03:06:03.062Z,15.02
2023-05-10T03:08:33.536Z,13.37
2023-05-10T03:11:19.410Z,9.95
2023-05-10T03:14:00.803Z,10.20
2023-05-10T03:16:40.225Z,15.93
2023-05-10T03:19:16.887Z,15.05
2023-05-10T03:21:54.977Z,10.95
2023-05-10T03:24:27.195Z,12.38
2023-05-10T03:27:00.517Z,13.70
2023-05-10T03:29:32.049Z,13.82
2023-05-10T03:32:03.072Z,11.00
2023-05-10T03:34:35.283Z,10.20
2023-05-10T03:37:07.970Z,10.93
2023-05-10T03:39:38.176Z,11.73
2023-05-10T03:42:13.040Z,12.63
2023-05-10T03:44:43.490Z,9.50
2023-05-10T03:47:13.699Z,9.48
2023-05-10T03:49:44.260Z,11.35
2023-05-10T03:52:19.351Z,11.52
2023-05-10T03:54:49.518Z,9.10
2023-05-10T03:57:19.680Z,11.82
2023-05-10T03:59:49.828Z,10.02
2023-05-10T04:02:20.974Z,9.77
2023-05-10T04:04:51.498Z,9.18
2023-05-10T04:07:24.215Z,12.88
2023-05-10T04:09:54.411Z,11.68
2023-05-10T04:12:26.262Z,10.32
2023-05-10T04:14:56.362Z,8.48
2023-05-10T04:17:26.616Z,12.52
2023-05-10T04:19:57.012Z,8.70
2023-05-10T04:22:30.340Z,14.35
2023-05-10T04:25:00.518Z,10.63
2023-05-10T04:27:30.632Z,15.20
2023-05-10T04:30:01.120Z,10.43
2023-05-10T04:32:31.528Z,13.10
2023-05-10T04:35:04.110Z,9.15
2023-05-10T04:37:37.738Z,10.68
2023-05-10T04:40:09.462Z,8.27
2023-05-10T04:42:39.605Z,25.23
2023-05-10T04:45:11.588Z,9.40
2023-05-10T04:47:41.998Z,14.25
2023-05-10T04:50:12.722Z,8.80
2023-05-10T04:52:45.524Z,9.82
2023-05-10T04:55:15.676Z,16.65
2023-05-10T04:57:46.412Z,10.35
2023-05-10T05:00:18.048Z,9.93
2023-05-10T05:02:49.385Z,11.02
2023-05-10T05:05:19.620Z,9.23
2023-05-10T05:07:52.824Z,8.82
2023-05-10T05:10:22.944Z,10.75
2023-05-10T05:12:53.073Z,8.35
2023-05-10T05:15:23.762Z,9.82
2023-05-10T05:17:53.944Z,10.48
2023-05-10T05:20:24.271Z,8.75
2023-05-10T05:22:57.057Z,6.60
2023-05-10T05:25:27.254Z,14.10
2023-05-10T05:27:57.408Z,12.18
2023-05-10T05:30:29.613Z,19.05
2023-05-10T05:32:59.893Z,10.00
2023-05-10T05:35:30.077Z,16.35
2023-05-10T05:38:02.831Z,10.70
2023-05-10T05:40:32.978Z,7.23
2023-05-10T05:43:03.095Z,18.73
2023-05-10T05:45:33.698Z,10.55
2023-05-10T05:48:04.058Z,11.98
2023-05-10T05:50:34.234Z,7.88
2023-05-10T05:53:06.948Z,10.95
2023-05-10T05:55:37.105Z,11.27
2023-05-10T05:58:07.338Z,7.90
2023-05-10T06:00:38.067Z,13.13
2023-05-10T06:03:08.654Z,13.77
2023-05-10T06:05:38.843Z,15.50
2023-05-10T06:08:11.575Z,15.98
2023-05-10T06:10:41.828Z,8.20
2023-05-10T06:13:12.080Z,8.77
2023-05-10T06:15:42.509Z,5.78
2023-05-10T06:18:12.714Z,18.45
2023-05-10T06:20:42.852Z,9.90
2023-05-10T06:23:15.853Z,8.48
2023-05-10T06:25:46.047Z,8.07
2023-05-10T06:28:16.200Z,11.98
2023-05-10T06:30:46.613Z,11.35
2023-05-10T06:33:17.271Z,9.13
2023-05-10T06:35:47.434Z,7.38
2023-05-10T06:38:20.216Z,8.60
2023-05-10T06:40:50.359Z,8.97
2023-05-10T06:43:20.571Z,6.40
2023-05-10T06:45:52.184Z,7.53
2023-05-10T06:48:22.825Z,6.00
2023-05-10T06:50:53.130Z,7.47
2023-05-10T06:53:26.017Z,8.93
2023-05-10T06:55:56.261Z,5.05
2023-05-10T06:58:26.460Z,5.50
2023-05-10T07:00:58.816Z,6.28
2023-05-10T07:03:29.054Z,24.27
2023-05-10T07:06:05.338Z,18.05
2023-05-10T07:08:38.408Z,6.03
2023-05-10T07:11:11.558Z,15.23
2023-05-10T07:13:45.280Z,5.22
2023-05-10T07:16:15.642Z,6.68
2023-05-10T07:18:45.851Z,12.05
2023-05-10T07:21:16.174Z,4.68
2023-05-10T07:23:48.982Z,7.13
2023-05-10T07:26:19.126Z,8.27
2023-05-10T07:28:49.253Z,5.50
2023-05-10T07:31:19.855Z,5.47
2023-05-10T07:33:49.972Z,4.25
2023-05-10T07:36:20.290Z,13.65
2023-05-10T07:38:53.405Z,9.77
2023-05-10T07:41:23.685Z,4.78
2023-05-10T07:43:53.858Z,5.50
2023-05-10T07:46:24.076Z,3.85
2023-05-10T07:48:54.390Z,6.18
2023-05-10T07:51:24.546Z,9.30
2023-05-10T07:53:58.162Z,4.32
2023-05-10T07:56:30.832Z,8.77
2023-05-10T07:59:01.485Z,7.57
2023-05-10T08:01:35.329Z,6.97
2023-05-10T08:04:05.973Z,5.50
2023-05-10T08:06:36.189Z,8.93
2023-05-10T08:09:08.972Z,12.10
2023-05-10T08:11:39.288Z,5.57
2023-05-10T08:14:09.446Z,9.80
2023-05-10T08:16:39.681Z,5.38
2023-05-10T08:19:10.053Z,5.45
2023-05-10T08:21:41.684Z,12.60
2023-05-10T08:24:14.545Z,11.98
2023-05-10T08:26:44.738Z,3.13
2023-05-10T08:29:14.865Z,3.70
2023-05-10T08:31:45.190Z,8.85
2023-05-10T08:34:15.451Z,8.88
2023-05-10T08:36:45.767Z,13.02
2023-05-10T08:39:29.368Z,7.57
2023-05-10T08:42:05.669Z,3.13
2023-05-10T08:44:38.274Z,3.17
2023-05-10T08:47:10.864Z,3.47
2023-05-10T08:49:41.673Z,3.20
2023-05-10T08:52:12.685Z,3.92
2023-05-10T08:54:45.773Z,8.77
2023-05-10T08:57:15.949Z,9.48
2023-05-10T08:59:46.431Z,11.98
2023-05-10T09:02:18.779Z,4.60
2023-05-10T09:04:50.404Z,3.38
2023-05-10T09:07:21.016Z,5.80
2023-05-10T09:09:54.344Z,10.25
2023-05-10T09:12:24.754Z,4.97
2023-05-10T09:14:56.481Z,6.45
2023-05-10T09:17:28.071Z,10.45
2023-05-10T09:20:02.328Z,8.07
2023-05-10T09:22:32.630Z,9.00
2023-05-10T09:25:15.080Z,2.75
2023-05-10T09:27:48.983Z,2.80
2023-05-10T09:30:28.655Z,4.18
2023-05-10T09:33:00.744Z,4.40
2023-05-10T09:35:32.770Z,2.75
2023-05-10T09:38:05.226Z,4.07
2023-05-10T09:40:38.095Z,9.07
2023-05-10T09:43:11.990Z,10.85
2023-05-10T09:45:42.345Z,3.38
2023-05-10T09:48:12.645Z,6.88
2023-05-10T09:50:43.055Z,3.28
2023-05-10T09:53:13.250Z,3.60
2023-05-10T09:55:48.142Z,7.57
2023-05-10T09:58:18.986Z,11.65
2023-05-10T10:00:56.104Z,8.55
2023-05-10T10:03:27.776Z,6.28
2023-05-10T10:05:59.236Z,3.47
2023-05-10T10:08:29.535Z,10.55
2023-05-10T10:11:02.616Z,4.45
2023-05-10T10:13:33.505Z,3.05
2023-05-10T10:16:03.685Z,9.95
2023-05-10T10:18:35.254Z,2.80
2023-05-10T10:21:06.418Z,3.42
2023-05-10T10:23:36.812Z,6.30
2023-05-10T10:26:10.751Z,7.82
2023-05-10T10:28:48.686Z,9.02
2023-05-10T10:31:28.481Z,3.63
2023-05-10T10:34:05.969Z,4.43
2023-05-10T10:36:38.197Z,3.22
2023-05-10T10:39:14.159Z,5.97
2023-05-10T10:41:55.193Z,4.63
2023-05-10T10:44:39.339Z,3.35
2023-05-10T10:47:30.288Z,5.90
2023-05-10T10:50:14.031Z,17.55
2023-05-10T10:55:18.332Z,22.85
2023-05-10T10:58:01.798Z,5.05
2023-05-10T11:00:34.796Z,3.20
2023-05-10T11:03:10.370Z,3.45
2023-05-10T11:05:45.756Z,3.35
2023-05-10T11:08:23.068Z,3.83
2023-05-10T11:11:08.322Z,3.40
2023-05-10T11:13:43.280Z,4.85
2023-05-10T11:16:21.737Z,2.67
2023-05-10T11:19:02.893Z,5.07
2023-05-10T11:21:33.780Z,6.93
2023-05-10T11:24:08.220Z,3.35
2023-05-10T11:26:39.549Z,4.63
2023-05-10T11:29:12.401Z,4.53
2023-05-10T11:31:48.102Z,2.08
2023-05-10T11:34:28.363Z,3.17
2023-05-10T11:36:59.824Z,4.20
2023-05-10T11:39:31.753Z,1.70
2023-05-10T11:42:02.862Z,5.35
2023-05-10T11:44:36.985Z,7.13
2023-05-10T11:47:07.237Z,8.52
2023-05-10T11:49:37.429Z,4.65
2023-05-10T11:52:12.403Z,2.10
2023-05-10T11:54:49.904Z,2.60
2023-05-10T11:57:20.084Z,8.38
2023-05-10T11:59:57.709Z,13.10
2023-05-10T12:02:28.263Z,4.63
2023-05-10T12:04:59.715Z,4.30
2023-05-10T12:07:30.690Z,8.07
2023-05-10T12:10:08.990Z,8.77
2023-05-10T12:12:43.125Z,2.40
2023-05-10T12:15:22.823Z,5.07
2023-05-10T12:17:53.964Z,7.95
2023-05-10T12:20:26.246Z,3.85
2023-05-10T12:23:00.344Z,6.32
2023-05-10T12:25:35.229Z,12.60
2023-05-10T12:28:08.642Z,5.38
2023-05-10T12:30:42.852Z,4.10
2023-05-10T12:33:16.189Z,4.47
2023-05-10T12:38:31.923Z,3.20
2023-05-10T12:41:03.395Z,5.15
2023-05-10T12:43:34.278Z,6.88
2023-05-10T12:46:12.390Z,5.05
2023-05-10T12:48:44.028Z,7.43
2023-05-10T12:51:19.354Z,4.47
2023-05-10T12:53:49.844Z,8.20
2023-05-10T12:56:20.051Z,7.97
2023-05-10T12:58:50.259Z,10.90
2023-05-10T13:01:23.222Z,3.88
2023-05-10T13:03:53.404Z,11.45
2023-05-10T13:06:23.674Z,4.97
2023-05-10T13:08:53.990Z,1.98
2023-05-10T13:11:24.478Z,4.57
2023-05-10T13:13:55.101Z,5.20
2023-05-10T13:16:28.084Z,6.30
2023-05-10T13:18:58.355Z,3.00
2023-05-10T13:21:29.104Z,4.13
2023-05-10T13:23:59.452Z,4.65
2023-05-10T13:26:30.037Z,6.22
2023-05-10T13:29:00.314Z,5.90
2023-05-10T13:31:33.092Z,2.72
2023-05-10T13:34:03.561Z,10.27
2023-05-10T13:36:34.163Z,4.07
2023-05-10T13:39:06.522Z,7.60
2023-05-10T13:41:36.687Z,2.90
2023-05-10T13:44:06.867Z,4.28
2023-05-10T13:46:39.880Z,6.68
2023-05-10T13:49:10.426Z,9.15
2023-05-10T13:51:40.584Z,5.35
2023-05-10T13:54:13.287Z,3.70
2023-05-10T13:56:45.178Z,4.70
2023-05-10T13:59:15.308Z,9.00
2023-05-10T14:01:48.571Z,2.10
2023-05-10T14:04:19.753Z,2.30
2023-05-10T14:06:49.938Z,2.25
2023-05-10T14:09:20.685Z,5.07
2023-05-10T14:11:50.980Z,3.85
2023-05-10T14:14:21.165Z,3.92
2023-05-10T14:16:53.897Z,8.80
2023-05-10T14:19:24.007Z,9.27
2023-05-10T14:21:54.133Z,6.68
2023-05-10T14:24:24.308Z,2.47
2023-05-10T14:26:55.241Z,6.15
2023-05-10T14:29:25.484Z,1.90
2023-05-10T14:31:58.517Z,10.45
2023-05-10T14:34:28.744Z,3.90
2023-05-10T14:36:59.542Z,19.73
2023-05-10T14:39:30.803Z,11.57
2023-05-10T14:42:00.956Z,1.60
2023-05-10T14:44:31.753Z,14.73
2023-05-10T14:47:04.523Z,3.40
2023-05-10T14:49:34.794Z,2.25
2023-05-10T14:52:05.017Z,1.63
2023-05-10T14:54:35.178Z,9.98
2023-05-10T14:57:06.658Z,5.03
2023-05-10T14:59:36.875Z,4.60
2023-05-10T15:02:11.518Z,2.97
2023-05-10T15:04:42.248Z,9.20
2023-05-10T15:07:15.546Z,12.32
2023-05-10T15:09:45.829Z,6.47
2023-05-10T15:12:16.040Z,5.75
2023-05-10T15:14:46.131Z,7.55
2023-05-10T15:17:18.895Z,2.20
2023-05-10T15:19:51.889Z,4.85
2023-05-10T15:22:27.430Z,4.03
2023-05-10T15:25:00.203Z,3.10
2023-05-10T15:27:30.612Z,6.78
2023-05-10T15:30:00.930Z,8.38
2023-05-10T15:32:33.750Z,6.43
2023-05-10T15:35:03.954Z,15.02
2023-05-10T15:37:34.103Z,2.33
2023-05-10T15:40:06.807Z,8.40
2023-05-10T15:42:36.960Z,1.60
2023-05-10T15:45:08.443Z,2.80
2023-05-10T15:47:43.032Z,3.92
2023-05-10T15:50:14.177Z,2.83
2023-05-10T15:52:44.526Z,2.17
2023-05-10T15:55:15.828Z,2.28
2023-05-10T15:57:51.038Z,4.72
2023-05-10T16:00:21.661Z,1.25
2023-05-10T16:02:56.022Z,5.95
2023-05-10T16:05:27.718Z,3.95
2023-05-10T16:07:57.875Z,12.65
2023-05-10T16:10:28.138Z,3.85
2023-05-10T16:12:58.447Z,2.35
2023-05-10T16:15:30.900Z,4.40
2023-05-10T16:18:05.100Z,4.57
2023-05-10T16:20:36.340Z,5.47
2023-05-10T16:23:08.011Z,2.78
2023-05-10T16:25:38.344Z,11.77
2023-05-10T16:28:08.586Z,3.13
2023-05-10T16:30:39.048Z,2.13
2023-05-10T16:33:11.977Z,2.83
2023-05-10T16:35:44.557Z,5.65
2023-05-10T16:38:15.249Z,5.47
2023-05-10T16:40:50.966Z,14.75
2023-05-10T16:43:21.722Z,9.07
2023-05-10T16:45:53.232Z,8.98
2023-05-10T16:48:26.125Z,8.60
2023-05-10T16:50:59.143Z,11.07
2023-05-10T16:53:29.507Z,8.80
2023-05-10T16:55:59.736Z,12.98
2023-05-10T16:58:29.909Z,6.43
2023-05-10T17:01:00.566Z,8.68
2023-05-10T17:03:33.828Z,5.25
2023-05-10T17:08:34.248Z,8.63
2023-05-10T17:11:05.301Z,6.95
2023-05-10T17:13:35.477Z,4.10
2023-05-10T17:16:06.437Z,6.80
2023-05-10T17:18:39.312Z,10.75
2023-05-10T17:21:09.696Z,3.30
2023-05-10T17:23:39.854Z,12.00
2023-05-10T17:26:10.484Z,5.50
2023-05-10T17:28:40.874Z,9.88
2023-05-10T17:31:11.352Z,5.63
2023-05-10T17:33:44.133Z,7.10
2023-05-10T17:36:14.304Z,4.90
2023-05-10T17:38:44.540Z,2.92
2023-05-10T17:41:14.610Z,4.18
2023-05-10T17:43:44.824Z,4.30
2023-05-10T17:46:15.355Z,12.77
2023-05-10T17:48:48.145Z,2.08
2023-05-10T17:51:18.296Z,3.17
2023-05-10T17:53:48.435Z,14.70
2023-05-10T17:56:18.532Z,12.35
2023-05-10T17:58:48.796Z,3.90
2023-05-10T18:01:19.308Z,3.22
2023-05-10T18:03:53.116Z,16.02
2023-05-10T18:06:23.746Z,6.93
2023-05-10T18:08:53.911Z,5.15
2023-05-10T18:11:24.035Z,3.10
2023-05-10T18:13:54.384Z,2.30
2023-05-10T18:16:24.567Z,10.95
2023-05-10T18:18:57.361Z,5.65
2023-05-10T18:21:27.566Z,6.65
2023-05-10T18:23:57.824Z,7.40
2023-05-10T18:26:28.344Z,5.68
2023-05-10T18:29:00.693Z,7.72
2023-05-10T18:31:32.872Z,7.63
2023-05-10T18:34:05.918Z,13.57
2023-05-10T18:36:36.246Z,6.53
2023-05-10T18:39:06.465Z,8.32
2023-05-10T18:41:37.768Z,6.00
2023-05-10T18:44:09.001Z,3.13
2023-05-10T18:46:39.342Z,16.45
2023-05-10T18:49:12.314Z,5.63
2023-05-10T18:51:42.439Z,9.98
2023-05-10T18:54:13.129Z,12.93
2023-05-10T18:56:45.438Z,6.85
2023-05-10T18:59:15.982Z,13.75
2023-05-10T19:01:47.478Z,7.55
2023-05-10T19:04:24.408Z,6.68
2023-05-10T19:06:56.094Z,3.55
2023-05-10T19:09:26.270Z,2.88
2023-05-10T19:11:56.918Z,7.95
2023-05-10T19:14:27.947Z,7.18
2023-05-10T19:17:01.356Z,6.22
2023-05-10T19:19:35.335Z,6.47
2023-05-10T19:22:05.539Z,2.83
2023-05-10T19:24:37.090Z,18.50
2023-05-10T19:27:07.481Z,9.75
2023-05-10T19:29:38.014Z,8.95
2023-05-10T19:32:09.401Z,4.95
2023-05-10T19:34:42.278Z,4.45
2023-05-10T19:37:12.443Z,4.15
2023-05-10T19:39:42.655Z,5.25
2023-05-10T19:42:12.807Z,5.15
2023-05-10T19:44:43.119Z,2.15
2023-05-10T19:47:13.369Z,10.25
2023-05-10T19:49:46.248Z,13.30
2023-05-10T19:52:16.443Z,11.65
2023-05-10T19:54:47.060Z,5.15
2023-05-10T19:57:17.362Z,4.43
2023-05-10T19:59:47.600Z,4.95
2023-05-10T20:02:17.741Z,10.25
2023-05-10T20:04:50.678Z,3.00
2023-05-10T20:07:20.878Z,10.82
2023-05-10T20:09:53.981Z,17.88
2023-05-10T20:12:24.088Z,9.02
2023-05-10T20:14:54.285Z,4.22
2023-05-10T20:17:24.547Z,7.57
2023-05-10T20:19:57.328Z,4.95
2023-05-10T20:22:28.812Z,4.33
2023-05-10T20:24:59.216Z,8.23
2023-05-10T20:27:29.432Z,4.50
2023-05-10T20:29:59.571Z,3.42
2023-05-10T20:32:29.931Z,12.10
2023-05-10T20:35:02.746Z,2.92
2023-05-10T20:37:35.677Z,3.13
2023-05-10T20:40:05.846Z,10.45
2023-05-10T20:42:36.174Z,4.80
2023-05-10T20:45:06.695Z,5.00
2023-05-10T20:47:36.941Z,7.93
2023-05-10T20:50:11.907Z,14.93
2023-05-10T20:52:42.405Z,6.43
2023-05-10T20:55:13.300Z,3.97
2023-05-10T20:57:43.440Z,4.10
2023-05-10T21:00:14.993Z,2.63
2023-05-10T21:02:46.325Z,7.03
2023-05-10T21:05:20.725Z,9.23
2023-05-10T21:07:54.299Z,9.70
2023-05-10T21:10:25.830Z,5.28
2023-05-10T21:12:55.987Z,16.63
2023-05-10T21:15:28.146Z,4.07
2023-05-10T21:17:58.969Z,7.60
2023-05-10T21:20:33.236Z,15.27
2023-05-10T21:23:03.329Z,14.55
2023-05-10T21:25:33.464Z,12.30
2023-05-10T21:28:03.522Z,2.60
2023-05-10T21:30:34.081Z,5.40
2023-05-10T21:33:04.361Z,7.70
2023-05-10T21:35:39.540Z,3.97
2023-05-10T21:38:09.867Z,10.52
2023-05-10T21:40:40.012Z,5.93
2023-05-10T21:43:11.497Z,12.85
2023-05-10T21:45:43.324Z,5.28
2023-05-10T21:48:15.731Z,12.82
2023-05-10T21:50:49.159Z,9.38
2023-05-10T21:53:20.137Z,4.53
2023-05-10T21:55:52.732Z,16.27
2023-05-10T21:58:22.862Z,7.85
2023-05-10T22:00:53.659Z,7.93
2023-05-10T22:03:24.206Z,6.30
2023-05-10T22:05:57.013Z,4.82
2023-05-10T22:08:27.214Z,7.10
2023-05-10T22:10:57.373Z,13.10
2023-05-10T22:13:28.904Z,4.68
2023-05-10T22:15:59.054Z,4.43
2023-05-10T22:18:29.483Z,8.68
2023-05-10T22:21:02.316Z,5.40
2023-05-10T22:23:32.427Z,7.00
2023-05-10T22:26:04.280Z,8.07
2023-05-10T22:28:34.381Z,4.20
2023-05-10T22:31:06.260Z,5.22
2023-05-10T22:33:36.487Z,7.53
2023-05-10T22:36:09.704Z,7.07
2023-05-10T22:38:39.936Z,5.53
2023-05-10T22:41:10.109Z,12.98
2023-05-10T22:43:40.224Z,4.90
2023-05-10T22:46:10.331Z,6.63
2023-05-10T22:48:40.573Z,6.90
2023-05-10T22:51:13.380Z,9.00
2023-05-10T22:53:44.760Z,4.23
2023-05-10T22:56:14.910Z,8.55
2023-05-10T22:58:45.098Z,4.55
2023-05-10T23:01:15.307Z,6.57
2023-05-10T23:03:45.479Z,8.25
2023-05-10T23:06:18.700Z,10.00
2023-05-10T23:08:49.542Z,16.02
2023-05-10T23:11:19.652Z,4.28
2023-05-10T23:13:50.799Z,6.63
2023-05-10T23:16:21.583Z,7.85
2023-05-10T23:18:51.788Z,12.65
2023-05-10T23:21:25.408Z,6.60
2023-05-10T23:23:55.605Z,12.40
2023-05-10T23:26:25.799Z,15.80
2023-05-10T23:28:55.977Z,13.68
2023-05-10T23:31:29.075Z,7.35
2023-05-10T23:33:59.212Z,5.97
2023-05-10T23:36:32.116Z,6.70
2023-05-10T23:39:02.217Z,15.00
2023-05-10T23:41:32.431Z,11.50
2023-05-10T23:44:03.285Z,10.23
2023-05-10T23:46:33.449Z,6.78
2023-05-10T23:49:03.691Z,9.02
2023-05-10T23:51:36.428Z,7.05
2023-05-10T23:54:06.717Z,11.73
2023-05-10T23:56:36.886Z,5.78
2023-05-10T23:59:07.690Z,6.30
